Time;durP1;ratioP1;P1;durP2;ratioP2;P2;SDS_P1;SDS_P2;PMS_P1;PMS_P2;Temp;Humidity;BMP_temperature;BMP_pressure;BME280_temperature;BME280_humidity;BME280_pressure;Samples;Min_cycle;Max_cycle;Signal;HPM_P1;HPM_P2
2021/07/19 00:01:20;;;;;;;39.00;19.60;;;;;;;22.42;100.00;100178.36;1759320;80;21029;-77
2021/07/19 00:03:46;;;;;;;47.00;21.40;;;;;;;22.36;100.00;100176.44;1759563;81;21013;-79
2021/07/19 00:06:12;;;;;;;45.78;21.93;;;;;;;22.36;100.00;100177.80;1759510;81;20959;-83
2021/07/19 00:08:38;;;;;;;44.23;20.40;;;;;;;22.36;100.00;100177.02;1761713;81;21123;-78
2021/07/19 00:11:05;;;;;;;48.95;21.62;;;;;;;22.35;100.00;100183.63;1761764;81;20884;-74
2021/07/19 00:13:32;;;;;;;48.13;21.57;;;;;;;22.33;100.00;100180.46;1761653;81;20970;-77
2021/07/19 00:15:58;;;;;;;42.17;20.25;;;;;;;22.30;100.00;100179.20;1742580;82;20979;-77
2021/07/19 00:18:24;;;;;;;41.80;20.80;;;;;;;22.29;100.00;100179.54;1742850;82;21050;-74
2021/07/19 00:20:51;;;;;;;41.13;20.00;;;;;;;22.31;100.00;100182.16;1742815;82;21142;-77
2021/07/19 00:23:17;;;;;;;43.15;20.57;;;;;;;22.28;100.00;100182.07;1742545;82;20936;-77
2021/07/19 00:25:43;;;;;;;42.40;19.52;;;;;;;22.25;100.00;100185.52;1742690;82;21574;-75
2021/07/19 00:28:09;;;;;;;44.45;20.43;;;;;;;22.18;100.00;100184.16;1761611;81;20850;-78
2021/07/19 00:30:37;;;;;;;39.70;19.02;;;;;;;22.11;100.00;100182.54;1719344;82;21050;-75
2021/07/19 00:33:05;;;;;;;41.60;19.48;;;;;;;22.07;100.00;100185.77;1742668;82;21065;-84
2021/07/19 00:35:31;;;;;;;41.77;20.15;;;;;;;22.09;100.00;100189.52;1742555;82;20941;-78
2021/07/19 00:37:57;;;;;;;44.20;19.32;;;;;;;22.09;100.00;100190.89;1761566;81;21038;-77
2021/07/19 00:40:28;;;;;;;41.58;20.20;;;;;;;22.06;100.00;100184.17;1761682;81;20927;-82
2021/07/19 00:42:54;;;;;;;43.75;21.52;;;;;;;22.04;100.00;100183.72;1761698;81;21181;-75
2021/07/19 00:45:25;;;;;;;47.20;20.77;;;;;;;21.99;100.00;100183.37;1742767;82;21075;-77
2021/07/19 00:47:55;;;;;;;45.33;20.20;;;;;;;21.98;100.00;100180.99;1761179;81;21070;-77
2021/07/19 00:50:23;;;;;;;39.23;20.82;;;;;;;21.97;100.00;100181.56;1735263;81;21041;-77
2021/07/19 00:52:50;;;;;;;35.17;18.42;;;;;;;21.96;100.00;100181.90;1761236;81;21033;-77
2021/07/19 00:55:17;;;;;;;36.45;17.92;;;;;;;21.95;100.00;100183.05;1761186;81;21050;-76
2021/07/19 00:57:49;;;;;;;40.73;19.55;;;;;;;21.91;100.00;100182.13;1760785;81;21098;-76
2021/07/19 01:00:16;;;;;;;42.88;18.00;;;;;;;21.86;100.00;100182.39;1761294;81;20993;-76
2021/07/19 01:02:46;;;;;;;38.60;20.48;;;;;;;21.82;100.00;100175.98;1753575;81;20971;-82
2021/07/19 01:05:15;;;;;;;39.60;18.70;;;;;;;21.80;100.00;100178.30;1742018;82;21019;-79
2021/07/19 01:07:41;;;;;;;39.23;20.15;;;;;;;21.81;100.00;100177.14;1680448;85;21054;-78
2021/07/19 01:10:14;;;;;;;36.50;18.98;;;;;;;21.82;100.00;100175.98;1738780;82;21126;-81
2021/07/19 01:12:52;;;;;;;42.97;18.37;;;;;;;21.78;100.00;100176.67;1738926;82;21070;-75
2021/07/19 01:15:19;;;;;;;39.65;19.50;;;;;;;21.77;100.00;100174.30;1686546;85;21230;-77
2021/07/19 01:17:45;;;;;;;38.05;18.92;;;;;;;21.76;100.00;100181.70;1686449;85;21043;-80
2021/07/19 01:20:11;;;;;;;41.77;19.75;;;;;;;21.72;100.00;100180.80;1686800;85;21688;-77
2021/07/19 01:23:16;;;;;;;36.95;19.17;;;;;;;21.67;100.00;100183.77;1686300;85;21200;-76
2021/07/19 01:26:19;;;;;;;43.42;18.70;;;;;;;21.65;100.00;100188.00;1686372;85;21118;-77
2021/07/19 01:28:49;;;;;;;37.67;20.05;;;;;;;21.63;100.00;100188.94;1686543;85;21030;-82
2021/07/19 01:31:29;;;;;;;40.38;19.92;;;;;;;21.60;100.00;100185.52;1657660;86;21031;-77
2021/07/19 01:34:03;;;;;;;43.05;20.30;;;;;;;21.58;100.00;100188.58;1657138;86;21593;-75
2021/07/19 01:36:33;;;;;;;41.58;20.45;;;;;;;21.55;100.00;100190.64;1657548;86;21149;-77
2021/07/19 01:39:00;;;;;;;49.13;21.70;;;;;;;21.55;100.00;100194.18;1657446;86;21070;-77
2021/07/19 01:41:28;;;;;;;39.67;20.95;;;;;;;21.56;100.00;100186.78;1620777;88;21591;-77
2021/07/19 01:44:00;;;;;;;39.83;19.98;;;;;;;21.60;100.00;100190.99;1620900;88;21056;-75
2021/07/19 01:46:27;;;;;;;46.95;21.10;;;;;;;21.59;100.00;100196.23;1605500;89;21157;-76
2021/07/19 01:48:55;;;;;;;46.63;22.27;;;;;;;21.54;100.00;100194.54;1584386;89;21213;-76
2021/07/19 01:51:24;;;;;;;40.98;21.80;;;;;;;21.51;100.00;100202.87;1572312;88;21075;-82
2021/07/19 01:53:51;;;;;;;37.78;20.05;;;;;;;21.52;100.00;100203.67;1549261;91;21063;-77
2021/07/19 01:56:18;;;;;;;39.25;21.12;;;;;;;21.51;100.00;100207.56;1569472;91;21088;-77
2021/07/19 01:58:47;;;;;;;35.15;18.20;;;;;;;21.52;100.00;100208.58;1569453;91;21183;-75
2021/07/19 02:01:14;;;;;;;38.67;20.45;;;;;;;21.52;100.00;100207.20;1569536;91;21579;-81
2021/07/19 02:03:42;;;;;;;45.35;18.67;;;;;;;21.51;100.00;100202.08;1572198;87;21047;-77
2021/07/19 02:06:09;;;;;;;43.98;19.75;;;;;;;21.51;100.00;100210.30;1630972;88;21035;-77
2021/07/19 02:08:38;;;;;;;41.65;18.90;;;;;;;21.50;100.00;100215.00;1643696;87;21105;-76
2021/07/19 02:11:06;;;;;;;36.83;18.35;;;;;;;21.51;100.00;100212.47;1631068;88;21070;-76
2021/07/19 02:13:35;;;;;;;40.43;20.75;;;;;;;21.54;100.00;100217.27;1643872;87;21919;-77
2021/07/19 02:16:02;;;;;;;43.87;21.62;;;;;;;21.56;100.00;100216.94;1630837;88;21066;-77
2021/07/19 02:18:32;;;;;;;42.65;21.10;;;;;;;21.60;100.00;100226.06;1643878;87;21091;-77
2021/07/19 02:21:06;;;;;;;40.38;21.05;;;;;;;21.64;100.00;100216.00;1631221;88;21149;-77
2021/07/19 02:23:35;;;;;;;38.15;19.65;;;;;;;21.65;100.00;100220.36;1643632;87;21535;-77
2021/07/19 02:26:03;;;;;;;38.23;17.65;;;;;;;21.68;100.00;100216.14;1631269;88;21101;-77
2021/07/19 02:28:33;;;;;;;38.40;19.05;;;;;;;21.71;100.00;100221.73;1659650;86;21103;-77
2021/07/19 02:31:05;;;;;;;39.20;19.57;;;;;;;21.76;100.00;100220.10;1696377;84;21018;-77
2021/07/19 02:33:34;;;;;;;38.92;19.27;;;;;;;21.83;100.00;100221.49;1678654;85;21058;-77
2021/07/19 02:36:01;;;;;;;38.95;20.27;;;;;;;21.90;100.00;100225.81;1678830;85;21546;-77
2021/07/19 02:38:28;;;;;;;39.78;20.65;;;;;;;21.97;100.00;100220.53;1678839;85;21020;-76
2021/07/19 02:40:54;;;;;;;41.23;20.32;;;;;;;22.07;100.00;100230.25;1655724;85;21050;-75
2021/07/19 02:43:23;;;;;;;38.60;20.10;;;;;;;22.17;100.00;100227.05;1692999;84;20991;-77
2021/07/19 02:45:53;;;;;;;44.83;20.05;;;;;;;22.27;100.00;100229.90;1705264;84;21038;-78
2021/07/19 02:48:21;;;;;;;43.00;19.25;;;;;;;22.35;100.00;100231.68;1705327;84;20998;-77
2021/07/19 02:50:50;;;;;;;40.67;19.87;;;;;;;22.44;100.00;100229.59;1727749;82;21093;-77
2021/07/19 02:53:18;;;;;;;37.48;19.27;;;;;;;22.54;100.00;100227.73;1753762;81;21017;-77
2021/07/19 02:55:46;;;;;;;38.80;19.32;;;;;;;22.63;100.00;100225.62;1747780;81;21046;-76
2021/07/19 02:58:15;;;;;;;32.53;18.62;;;;;;;22.79;100.00;100226.23;1747830;81;21484;-77
2021/07/19 03:00:44;;;;;;;37.48;18.48;;;;;;;22.93;100.00;100227.20;1743202;82;21055;-77
2021/07/19 03:03:14;;;;;;;34.75;17.40;;;;;;;23.09;100.00;100228.86;1747814;82;21154;-76
2021/07/19 03:05:47;;;;;;;29.10;16.95;;;;;;;23.25;100.00;100226.69;1747670;81;21421;-77
2021/07/19 03:08:14;;;;;;;30.65;16.93;;;;;;;23.40;100.00;100225.09;1747087;82;26668;-77
2021/07/19 03:10:45;;;;;;;34.78;17.17;;;;;;;23.50;100.00;100226.73;1747823;82;21019;-77
2021/07/19 03:13:18;;;;;;;33.13;17.15;;;;;;;23.63;100.00;100223.30;1668962;84;21026;-77
2021/07/19 03:15:45;;;;;;;29.77;16.60;;;;;;;23.74;100.00;100220.25;1668801;85;21630;-79
2021/07/19 03:18:12;;;;;;;32.88;16.45;;;;;;;23.88;100.00;100227.22;1668715;85;21066;-77
2021/07/19 03:20:43;;;;;;;38.10;17.35;;;;;;;24.07;100.00;100220.39;1668975;85;21102;-78
2021/07/19 03:23:15;;;;;;;32.17;16.27;;;;;;;24.24;100.00;100217.80;1668947;85;21560;-78
2021/07/19 03:25:43;;;;;;;32.17;16.37;;;;;;;24.52;100.00;100223.70;1668893;86;20986;-78
2021/07/19 03:28:10;;;;;;;27.27;14.45;;;;;;;24.91;100.00;100223.87;1668884;85;21143;-77
2021/07/19 03:30:38;;;;;;;27.22;14.80;;;;;;;25.44;100.00;100227.93;1669000;85;20967;-78
2021/07/19 03:33:05;;;;;;;33.10;15.18;;;;;;;26.00;100.00;100225.84;1668872;85;21129;-78
2021/07/19 03:35:32;;;;;;;31.75;14.47;;;;;;;26.57;100.00;100222.45;1675518;84;21054;-82
2021/07/19 03:38:00;;;;;;;28.55;14.80;;;;;;;27.16;100.00;100228.22;1674475;84;21026;-78
2021/07/19 03:40:27;;;;;;;32.63;13.85;;;;;;;27.64;100.00;100223.45;1697196;84;21074;-80
2021/07/19 03:43:00;;;;;;;23.02;12.45;;;;;;;28.14;100.00;100218.04;1697203;84;21021;-77
2021/07/19 03:45:28;;;;;;;24.37;13.00;;;;;;;28.69;100.00;100218.67;1697184;84;21015;-78
2021/07/19 03:47:55;;;;;;;23.83;12.73;;;;;;;29.07;100.00;100221.94;1696991;84;21085;-82
2021/07/19 03:50:22;;;;;;;21.77;13.30;;;;;;;29.50;100.00;100222.52;1698428;82;21007;-80
2021/07/19 03:52:50;;;;;;;21.70;12.25;;;;;;;29.92;100.00;100219.52;1701950;84;21148;-81
2021/07/19 03:55:17;;;;;;;28.75;13.22;;;;;;;30.38;100.00;100224.13;1701777;84;21073;-84
2021/07/19 03:57:44;;;;;;;23.87;12.30;;;;;;;30.81;100.00;100227.52;1702042;84;21034;-79
2021/07/19 04:00:17;;;;;;;24.23;12.70;;;;;;;31.30;100.00;100223.39;1702168;84;21113;-81
2021/07/19 04:02:50;;;;;;;27.85;12.50;;;;;;;31.67;100.00;100227.63;1706660;82;21062;-79
2021/07/19 04:05:15;;;;;;;22.35;13.00;;;;;;;31.82;100.00;100230.28;1737138;82;20983;-80
2021/07/19 04:07:45;;;;;;;24.15;12.80;;;;;;;32.15;100.00;100232.13;1721820;82;21011;-79
2021/07/19 04:10:15;;;;;;;23.95;11.80;;;;;;;32.69;100.00;100235.06;1703133;83;21038;-80
2021/07/19 04:12:45;;;;;;;23.20;12.00;;;;;;;33.21;100.00;100231.31;1590975;88;21559;-79
2021/07/19 04:15:12;;;;;;;21.85;12.15;;;;;;;33.66;100.00;100235.77;1539305;93;21546;-79
2021/07/19 04:17:38;;;;;;;21.42;11.78;;;;;;;34.01;100.00;100231.50;1539246;93;21099;-80
2021/07/19 04:20:08;;;;;;;26.30;12.78;;;;;;;34.29;97.28;100234.95;1539627;91;21058;-80
2021/07/19 04:22:35;;;;;;;27.22;12.60;;;;;;;34.62;92.16;100230.27;1539158;93;21586;-80
2021/07/19 04:25:10;;;;;;;27.17;13.35;;;;;;;34.84;88.98;100229.80;1539171;91;21050;-81
2021/07/19 04:27:43;;;;;;;20.08;12.28;;;;;;;35.16;83.90;100232.64;1504280;95;21057;-81
2021/07/19 04:30:12;;;;;;;26.45;12.68;;;;;;;35.60;82.70;100226.14;1504040;95;21887;-83
2021/07/19 04:32:44;;;;;;;22.30;13.62;;;;;;;36.18;76.32;100228.78;1481101;96;21115;-80
2021/07/19 04:35:20;;;;;;;19.07;12.25;;;;;;;36.58;74.70;100227.19;1481348;96;21564;-80
2021/07/19 04:37:50;;;;;;;22.27;12.98;;;;;;;36.92;67.28;100222.94;1481293;96;21559;-80
2021/07/19 04:40:17;;;;;;;26.45;13.28;;;;;;;37.34;63.83;100223.41;1447568;99;21145;-80
2021/07/19 04:42:43;;;;;;;25.35;12.75;;;;;;;37.67;66.02;100221.07;1447656;99;21210;-80
2021/07/19 04:45:10;;;;;;;19.92;12.85;;;;;;;38.12;61.15;100217.04;1452781;98;21081;-83
2021/07/19 04:47:36;;;;;;;29.57;13.75;;;;;;;38.36;56.94;100215.95;1452739;98;21128;-82
2021/07/19 04:50:04;;;;;;;22.37;12.40;;;;;;;38.47;53.25;100220.55;1452061;98;21129;-80
2021/07/19 04:52:31;;;;;;;22.85;13.15;;;;;;;38.66;54.79;100215.80;1442047;99;21121;-80
2021/07/19 04:55:01;;;;;;;20.77;13.03;;;;;;;38.79;51.48;100219.28;1442214;99;21434;-80
2021/07/19 04:57:29;;;;;;;27.02;14.78;;;;;;;39.00;52.66;100216.87;1441807;99;21241;-80
2021/07/19 04:59:57;;;;;;;24.40;13.65;;;;;;;39.23;49.18;100219.73;1444969;98;21137;-80
2021/07/19 05:02:27;;;;;;;22.77;13.45;;;;;;;39.32;49.30;100212.73;1448230;98;21109;-82
2021/07/19 05:04:56;;;;;;;25.10;13.00;;;;;;;39.59;48.72;100212.59;1447973;98;21194;-80
2021/07/19 05:07:30;;;;;;;23.75;12.85;;;;;;;39.69;47.26;100219.81;1450775;98;21604;-81
2021/07/19 05:09:55;;;;;;;25.57;13.75;;;;;;;39.82;46.53;100221.08;1427719;99;21187;-83
2021/07/19 05:12:22;;;;;;;27.87;13.60;;;;;;;40.11;46.89;100221.34;1460081;97;21128;-78
2021/07/19 05:14:49;;;;;;;22.77;13.08;;;;;;;40.70;45.42;100230.16;1517447;94;21158;-80
2021/07/19 05:17:16;;;;;;;20.37;13.40;;;;;;;41.23;44.13;100229.58;1607107;88;21091;-80
2021/07/19 05:19:44;;;;;;;22.13;13.10;;;;;;;41.51;42.96;100233.03;1596633;88;21303;-82
2021/07/19 05:22:14;;;;;;;25.88;12.13;;;;;;;41.86;41.48;100232.40;1600680;88;21107;-79
2021/07/19 05:24:42;;;;;;;23.52;12.45;;;;;;;42.13;41.58;100237.06;1615569;87;20995;-77
2021/07/19 05:27:11;;;;;;;23.57;13.35;;;;;;;42.39;39.41;100230.20;1630734;87;21087;-79
2021/07/19 05:29:40;;;;;;;21.87;13.72;;;;;;;42.43;39.00;100222.27;1643611;86;21003;-77
2021/07/19 05:32:08;;;;;;;24.77;13.60;;;;;;;42.61;37.71;100224.87;1649202;86;21284;-77
2021/07/19 05:34:34;;;;;;;23.90;13.38;;;;;;;42.85;39.27;100226.79;1650476;86;21085;-75
2021/07/19 05:37:02;;;;;;;20.97;13.50;;;;;;;43.22;38.47;100225.66;1708022;80;21028;-74
2021/07/19 05:39:28;;;;;;;20.55;13.13;;;;;;;43.57;37.17;100229.73;1773543;80;21465;-78
2021/07/19 05:41:54;;;;;;;25.80;13.72;;;;;;;43.60;36.83;100225.89;1775024;80;21025;-79
2021/07/19 05:44:20;;;;;;;27.35;13.60;;;;;;;43.80;37.09;100226.47;1767802;80;21134;-79
2021/07/19 05:46:47;;;;;;;21.45;13.00;;;;;;;44.35;36.45;100222.00;1774958;80;21643;-81
2021/07/19 05:49:13;;;;;;;21.85;13.80;;;;;;;44.72;35.39;100226.16;1773853;80;21032;-79
2021/07/19 05:51:39;;;;;;;21.20;14.20;;;;;;;45.02;34.79;100223.77;1768047;80;21162;-84
2021/07/19 05:54:05;;;;;;;23.25;13.88;;;;;;;45.16;33.89;100223.48;1769792;81;20910;-78
2021/07/19 05:56:34;;;;;;;25.80;13.95;;;;;;;45.42;33.27;100226.14;1729510;81;21841;-76
2021/07/19 05:59:02;;;;;;;22.07;13.65;;;;;;;45.42;33.37;100231.22;1769061;81;21466;-80
2021/07/19 06:01:28;;;;;;;18.00;13.38;;;;;;;45.68;33.29;100230.27;1769786;81;21127;-76
2021/07/19 06:03:54;;;;;;;18.40;12.28;;;;;;;46.06;32.68;100228.80;1771029;81;21496;-78
2021/07/19 06:06:20;;;;;;;17.92;13.85;;;;;;;46.53;32.40;100227.64;1768532;81;20969;-76
2021/07/19 06:08:47;;;;;;;23.27;12.58;;;;;;;46.77;31.19;100224.91;1769866;81;21528;-79
2021/07/19 06:11:13;;;;;;;22.70;12.45;;;;;;;46.87;31.54;100222.69;1771190;81;20982;-79
2021/07/19 06:13:38;;;;;;;21.50;11.75;;;;;;;47.02;31.31;100222.41;1765210;81;21677;-79
2021/07/19 06:16:05;;;;;;;17.70;12.43;;;;;;;47.13;30.71;100220.17;1745597;81;20856;-78
2021/07/19 06:18:30;;;;;;;20.88;12.63;;;;;;;47.27;29.86;100213.99;1762981;81;20981;-78
2021/07/19 06:20:56;;;;;;;17.65;12.55;;;;;;;47.66;30.06;100218.77;1763169;81;20946;-79
2021/07/19 06:23:22;;;;;;;19.25;13.28;;;;;;;47.87;29.75;100212.03;1745651;81;20866;-78
2021/07/19 06:25:54;;;;;;;19.17;12.53;;;;;;;48.13;28.70;100206.65;1763121;81;21020;-78
2021/07/19 06:28:20;;;;;;;17.52;12.43;;;;;;;48.27;28.34;100216.13;1745133;81;21049;-84
2021/07/19 06:30:46;;;;;;;20.05;12.33;;;;;;;47.96;27.96;100213.13;1759999;81;21734;-77
2021/07/19 06:33:14;;;;;;;17.77;12.60;;;;;;;47.98;27.92;100214.80;1759993;81;21119;-78
2021/07/19 06:35:40;;;;;;;16.25;12.28;;;;;;;48.49;27.56;100220.87;1745546;81;20866;-78
2021/07/19 06:38:06;;;;;;;17.12;12.63;;;;;;;48.62;26.91;100217.38;1754306;80;20893;-80
2021/07/19 06:40:31;;;;;;;16.93;12.73;;;;;;;48.20;26.92;100221.77;1772991;81;20932;-77
2021/07/19 06:42:57;;;;;;;20.27;12.28;;;;;;;48.35;26.72;100223.47;1773021;81;20963;-78
2021/07/19 06:45:26;;;;;;;25.75;13.38;;;;;;;48.54;26.98;100217.22;1773242;80;21068;-78
2021/07/19 06:47:52;;;;;;;17.60;12.88;;;;;;;48.66;26.66;100222.94;1772643;81;21516;-78
2021/07/19 06:50:18;;;;;;;17.07;13.62;;;;;;;48.40;26.24;100221.22;1772935;80;21028;-79
2021/07/19 06:52:44;;;;;;;15.93;12.60;;;;;;;48.54;26.70;100214.98;1794865;80;20986;-78
2021/07/19 06:55:11;;;;;;;15.40;13.13;;;;;;;48.44;26.31;100220.27;1790708;78;20955;-81
2021/07/19 06:57:39;;;;;;;17.62;12.63;;;;;;;48.84;26.46;100214.94;1771375;79;21297;-78
2021/07/19 07:00:10;;;;;;;18.23;12.35;;;;;;;49.24;25.73;100210.98;1782199;78;20967;-76
2021/07/19 07:02:36;;;;;;;14.90;12.73;;;;;;;49.33;25.30;100217.12;1738780;81;21021;-79
2021/07/19 07:05:03;;;;;;;17.20;13.62;;;;;;;49.56;25.54;100213.28;1764169;80;21498;-78
2021/07/19 07:07:29;;;;;;;21.90;13.13;;;;;;;50.23;25.00;100214.99;1749303;80;21545;-85
2021/07/19 07:09:57;;;;;;;17.05;13.20;;;;;;;50.31;25.10;100215.92;1756193;80;21137;-76
2021/07/19 07:12:23;;;;;;;19.60;14.10;;;;;;;50.41;23.92;100207.66;1786952;80;20983;-78
2021/07/19 07:14:49;;;;;;;15.03;13.50;;;;;;;50.26;24.66;100216.77;1787066;80;20896;-83
2021/07/19 07:17:15;;;;;;;16.75;12.80;;;;;;;50.65;24.18;100212.45;1787170;80;21034;-79
2021/07/19 07:19:41;;;;;;;20.45;13.95;;;;;;;50.83;23.21;100213.02;1787410;80;21055;-77
2021/07/19 07:22:07;;;;;;;23.22;14.10;;;;;;;50.57;23.08;100207.22;1787250;80;21050;-79
2021/07/19 07:24:34;;;;;;;20.40;13.55;;;;;;;50.25;23.87;100215.23;1787167;80;21021;-78
2021/07/19 07:27:00;;;;;;;15.15;13.00;;;;;;;50.24;24.27;100207.92;1786867;80;20960;-77
2021/07/19 07:29:26;;;;;;;19.20;12.80;;;;;;;50.19;23.23;100206.72;1787058;80;20928;-78
2021/07/19 07:31:52;;;;;;;17.10;12.88;;;;;;;49.93;23.70;100206.65;1787095;79;20907;-78
2021/07/19 07:34:18;;;;;;;16.30;13.18;;;;;;;50.27;23.04;100208.92;1760552;80;21100;-79
2021/07/19 07:36:44;;;;;;;19.42;13.60;;;;;;;50.39;22.88;100212.53;1787009;80;20976;-79
2021/07/19 07:39:11;;;;;;;15.08;13.05;;;;;;;50.67;22.92;100206.94;1760514;80;21519;-76
2021/07/19 07:41:37;;;;;;;15.32;13.72;;;;;;;51.16;23.51;100202.81;1787120;80;21544;-78
2021/07/19 07:44:03;;;;;;;20.10;13.98;;;;;;;51.59;22.62;100201.62;1787154;80;20892;-78
2021/07/19 07:46:29;;;;;;;18.67;13.18;;;;;;;51.73;21.40;100196.73;1787458;80;21359;-78
2021/07/19 07:48:55;;;;;;;15.30;13.70;;;;;;;51.65;21.70;100197.98;1787045;80;20951;-79
2021/07/19 07:51:21;;;;;;;15.30;13.65;;;;;;;51.67;20.96;100193.22;1786902;80;21370;-78
2021/07/19 07:53:48;;;;;;;15.93;14.30;;;;;;;51.36;21.29;100190.64;1787005;80;21644;-78
2021/07/19 07:56:14;;;;;;;16.25;12.90;;;;;;;50.47;22.18;100195.42;1787058;80;21007;-80
2021/07/19 07:58:40;;;;;;;17.48;14.35;;;;;;;49.90;22.39;100194.15;1787103;80;21555;-78
2021/07/19 08:01:07;;;;;;;16.17;14.13;;;;;;;49.82;22.39;100187.50;1787101;80;20871;-79
2021/07/19 08:03:33;;;;;;;18.37;14.80;;;;;;;50.07;22.81;100189.60;1787085;80;20976;-85
2021/07/19 08:05:59;;;;;;;16.85;14.78;;;;;;;50.03;22.95;100186.27;1787509;80;20935;-84
2021/07/19 08:08:25;;;;;;;20.00;14.78;;;;;;;49.87;22.59;100183.78;1787573;80;21060;-80
2021/07/19 08:10:50;;;;;;;24.20;14.70;;;;;;;49.86;23.31;100182.21;1787030;80;21121;-79
2021/07/19 08:13:16;;;;;;;20.45;14.30;;;;;;;49.99;23.16;100180.09;1786803;80;20852;-78
2021/07/19 08:15:47;;;;;;;24.80;14.63;;;;;;;50.16;22.78;100181.24;1773451;80;21041;-79
2021/07/19 08:18:10;;;;;;;17.82;14.10;;;;;;;50.51;22.61;100182.17;1751746;81;20979;-78
2021/07/19 08:20:36;;;;;;;18.45;13.65;;;;;;;50.59;22.40;100183.06;1756103;81;20883;-79
2021/07/19 08:23:02;;;;;;;13.98;12.47;;;;;;;50.05;21.48;100177.13;1755953;81;21090;-78
2021/07/19 08:25:28;;;;;;;17.07;12.90;;;;;;;49.71;22.31;100172.69;1755872;81;20980;-76
2021/07/19 08:27:55;;;;;;;15.35;12.55;;;;;;;49.94;22.21;100173.78;1755833;81;21078;-77
2021/07/19 08:30:22;;;;;;;16.40;13.05;;;;;;;50.38;22.10;100173.67;1755736;81;20999;-76
2021/07/19 08:32:48;;;;;;;17.12;12.43;;;;;;;50.45;21.99;100177.34;1755895;81;21006;-77
2021/07/19 08:35:14;;;;;;;16.10;13.20;;;;;;;50.47;21.78;100171.70;1756026;81;20969;-76
2021/07/19 08:37:44;;;;;;;13.65;11.80;;;;;;;50.71;22.13;100167.86;1755820;81;21412;-78
2021/07/19 08:40:13;;;;;;;16.57;11.97;;;;;;;50.29;21.39;100164.06;1756146;81;21003;-80
2021/07/19 08:42:40;;;;;;;13.30;10.90;;;;;;;50.16;21.63;100160.50;1755922;81;21511;-78
2021/07/19 08:45:09;;;;;;;14.13;11.00;;;;;;;49.46;21.85;100156.25;1756077;81;21022;-79
2021/07/19 08:47:41;;;;;;;12.53;11.17;;;;;;;49.51;22.06;100154.64;1756218;81;21093;-76
2021/07/19 08:50:09;;;;;;;17.92;11.05;;;;;;;50.20;21.52;100152.34;1755891;81;20999;-79
2021/07/19 08:52:36;;;;;;;13.32;11.40;;;;;;;50.14;21.69;100147.36;1754792;81;21499;-79
2021/07/19 08:55:05;;;;;;;12.98;11.60;;;;;;;50.52;21.88;100149.30;1756117;81;20959;-79
2021/07/19 08:57:33;;;;;;;13.00;11.70;;;;;;;51.02;21.44;100145.44;1755851;81;21058;-79
2021/07/19 09:00:05;;;;;;;18.87;11.15;;;;;;;51.32;20.86;100146.47;1755894;81;22357;-77
2021/07/19 09:02:34;;;;;;;14.73;10.18;;;;;;;51.19;20.72;100147.94;1756085;81;21007;-80
2021/07/19 09:05:00;;;;;;;14.78;10.75;;;;;;;51.20;19.76;100142.29;1755849;81;21015;-76
2021/07/19 09:07:26;;;;;;;16.35;10.18;;;;;;;50.42;20.06;100141.14;1730245;81;20951;-80
2021/07/19 09:09:53;;;;;;;17.60;9.63;;;;;;;49.50;20.02;100139.52;1756021;81;21018;-80
2021/07/19 09:12:39;;;;;;;13.78;9.95;;;;;;;48.58;21.03;100138.25;1756078;81;21071;-77
2021/07/19 09:15:08;;;;;;;15.93;11.35;;;;;;;48.75;21.68;100140.25;1756141;81;21054;-79
2021/07/19 09:17:34;;;;;;;14.07;9.85;;;;;;;48.83;21.49;100130.38;1755790;81;21503;-79
2021/07/19 09:20:00;;;;;;;17.87;10.03;;;;;;;48.83;21.36;100143.27;1756192;81;21031;-81
2021/07/19 09:22:30;;;;;;;21.62;10.72;;;;;;;48.49;21.47;100142.22;1756202;81;20888;-80
2021/07/19 09:25:13;;;;;;;15.70;9.98;;;;;;;48.28;21.00;100139.06;1752706;81;21093;-80
2021/07/19 09:28:04;;;;;;;13.62;9.30;;;;;;;47.92;21.46;100149.12;1756013;81;21082;-78
2021/07/19 09:30:37;;;;;;;15.72;9.90;;;;;;;47.27;21.81;100146.28;1731915;81;21003;-77
2021/07/19 09:33:06;;;;;;;16.82;9.78;;;;;;;45.73;22.53;100151.19;1756000;81;20983;-80
2021/07/19 09:35:35;;;;;;;22.55;9.83;;;;;;;45.11;22.75;100150.98;1756160;81;21043;-79
2021/07/19 09:38:09;;;;;;;16.85;9.20;;;;;;;44.81;24.29;100147.77;1756067;81;21147;-80
2021/07/19 09:40:39;;;;;;;14.63;8.80;;;;;;;45.62;23.63;100144.05;1680969;84;21107;-80
2021/07/19 09:43:18;;;;;;;15.25;8.73;;;;;;;45.67;23.51;100146.91;1692868;82;21129;-81
2021/07/19 09:45:48;;;;;;;12.63;8.83;;;;;;;45.36;23.52;100149.30;1721927;82;21551;-82
2021/07/19 09:48:14;;;;;;;11.78;9.15;;;;;;;45.46;24.14;100155.52;1707954;83;20970;-82
2021/07/19 09:50:52;;;;;;;15.35;8.90;;;;;;;45.68;23.21;100147.68;1705450;84;21904;-82
2021/07/19 09:53:37;;;;;;;14.70;9.30;;;;;;;45.76;23.11;100155.84;1732281;82;21673;-83
2021/07/19 09:56:19;;;;;;;15.23;9.53;;;;;;;45.99;23.90;100144.62;1683006;84;21079;-81
2021/07/19 09:58:51;;;;;;;15.58;9.03;;;;;;;45.52;24.24;100158.53;1682998;83;21044;-82
2021/07/19 10:01:30;;;;;;;15.72;9.60;;;;;;;45.41;24.37;100146.31;1655624;85;21650;-81
2021/07/19 10:04:15;;;;;;;11.90;9.10;;;;;;;45.69;24.67;100149.25;1685141;83;21590;-81
2021/07/19 10:06:44;;;;;;;11.95;8.28;;;;;;;44.79;23.15;100146.06;1680012;84;21024;-82
2021/07/19 10:09:13;;;;;;;18.60;9.78;;;;;;;44.13;24.00;100143.03;1664685;84;21552;-82
2021/07/19 10:11:52;;;;;;;14.07;9.88;;;;;;;44.35;25.18;100146.69;1664581;84;21087;-88
2021/07/19 10:14:35;;;;;;;18.77;10.08;;;;;;;44.78;24.53;100143.09;1642283;87;21064;-87
2021/07/19 10:17:03;;;;;;;14.90;8.78;;;;;;;44.25;25.58;100145.31;1663076;86;21514;-87
2021/07/19 10:19:29;;;;;;;12.58;8.70;;;;;;;44.08;24.85;100145.17;1662583;86;21032;-87
2021/07/19 10:21:55;;;;;;;23.05;10.58;;;;;;;44.20;24.77;100140.36;1670129;85;21076;-87
2021/07/19 10:24:21;;;;;;;19.27;9.70;;;;;;;43.90;25.73;100141.26;1662896;86;21036;-88
2021/07/19 10:26:52;;;;;;;18.95;9.30;;;;;;;43.54;24.83;100140.02;1662896;86;21123;-85
2021/07/19 10:29:18;;;;;;;14.95;8.75;;;;;;;43.24;26.35;100138.00;1662336;85;21119;-84
2021/07/19 10:31:45;;;;;;;15.08;9.25;;;;;;;43.49;26.15;100134.26;1662887;86;21099;-89
2021/07/19 10:36:55;;;;;;;13.55;9.30;;;;;;;44.13;24.74;100129.47;1600992;87;21062;-84
2021/07/19 10:39:35;;;;;;;14.93;9.05;;;;;;;44.32;24.40;100119.90;1648887;87;21660;-84
2021/07/19 10:42:05;;;;;;;11.12;8.93;;;;;;;43.79;25.27;100126.31;1598768;89;21212;-85
2021/07/19 10:44:36;;;;;;;13.08;8.28;;;;;;;43.24;24.94;100131.52;1599155;89;21034;-85
2021/07/19 10:47:15;;;;;;;17.35;8.70;;;;;;;42.18;26.06;100127.31;1599223;89;21083;-85
2021/07/19 10:49:43;;;;;;;13.70;8.38;;;;;;;42.42;26.29;100122.31;1599009;89;21111;-82
2021/07/19 10:52:12;;;;;;;15.08;9.25;;;;;;;42.86;26.40;100125.66;1578318;89;21598;-85
2021/07/19 10:54:50;;;;;;;13.72;9.50;;;;;;;43.09;24.87;100111.73;1598939;89;21140;-86
2021/07/19 10:57:18;;;;;;;13.00;8.80;;;;;;;42.93;24.80;100108.84;1599094;89;21130;-88
2021/07/19 11:00:02;;;;;;;17.12;9.15;;;;;;;42.99;25.80;100112.52;1598757;89;21086;-86
2021/07/19 11:02:28;;;;;;;15.35;9.45;;;;;;;42.73;26.24;100115.28;1597817;89;21110;-82
2021/07/19 11:04:56;;;;;;;17.85;9.45;;;;;;;42.02;27.48;100113.03;1602376;88;21110;-82
2021/07/19 11:07:25;;;;;;;16.77;9.25;;;;;;;41.77;27.57;100118.66;1609234;89;21094;-82
2021/07/19 11:09:52;;;;;;;15.03;9.35;;;;;;;41.88;27.54;100103.25;1608879;89;21012;-81
2021/07/19 11:12:21;;;;;;;12.00;8.90;;;;;;;42.06;27.43;100100.09;1615748;88;21113;-91
2021/07/19 11:14:51;;;;;;;15.48;8.60;;;;;;;42.14;27.53;100099.83;1616093;88;21753;-83
2021/07/19 11:17:20;;;;;;;12.98;8.50;;;;;;;42.47;26.73;100091.71;1616438;88;21155;-82